sensor_id;sensor_type;location;lat;lon;timestamp;temperature;humidity
54986;DHT22;40885;53.070;6.228;2022-08-19T09:22:56;21.40;99.90
54986;DHT22;40885;53.070;6.228;2022-08-19T09:25:22;21.40;99.90
54986;DHT22;40885;53.070;6.228;2022-08-19T09:27:50;21.50;99.90
54986;DHT22;40885;53.070;6.228;2022-08-19T09:30:23;21.60;99.90
54986;DHT22;40885;53.070;6.228;2022-08-19T09:32:50;21.70;99.90
54986;DHT22;40885;53.070;6.228;2022-08-19T09:35:19;21.70;99.90
54986;DHT22;40885;53.070;6.228;2022-08-19T09:37:48;21.80;99.90
54986;DHT22;40885;53.070;6.228;2022-08-19T09:40:16;21.90;99.90
54986;DHT22;40885;53.070;6.228;2022-08-19T09:42:43;21.90;99.90
54986;DHT22;40885;53.070;6.228;2022-08-19T09:45:09;22.00;99.90
54986;DHT22;40885;53.070;6.228;2022-08-19T09:47:36;22.10;99.90
54986;DHT22;40885;53.070;6.228;2022-08-19T09:50:08;22.10;99.90
54986;DHT22;40885;53.070;6.228;2022-08-19T09:52:34;22.20;99.90
54986;DHT22;40885;53.070;6.228;2022-08-19T09:55:06;22.30;99.90
54986;DHT22;40885;53.070;6.228;2022-08-19T09:57:33;22.50;99.90
54986;DHT22;40885;53.070;6.228;2022-08-19T09:59:59;22.50;99.90
54986;DHT22;40885;53.070;6.228;2022-08-19T10:02:25;22.60;99.90
54986;DHT22;40885;53.070;6.228;2022-08-19T10:04:51;22.70;99.90
54986;DHT22;40885;53.070;6.228;2022-08-19T10:07:36;22.70;99.90
54986;DHT22;40885;53.070;6.228;2022-08-19T10:10:04;22.70;99.90
54986;DHT22;40885;53.070;6.228;2022-08-19T10:12:31;22.80;99.90
54986;DHT22;40885;53.070;6.228;2022-08-19T10:14:58;22.80;99.90
54986;DHT22;40885;53.070;6.228;2022-08-19T10:17:24;22.90;99.90
54986;DHT22;40885;53.070;6.228;2022-08-19T10:19:51;22.90;99.90
54986;DHT22;40885;53.070;6.228;2022-08-19T10:22:18;22.90;99.90
54986;DHT22;40885;53.070;6.228;2022-08-19T10:24:46;23.00;99.90
54986;DHT22;40885;53.070;6.228;2022-08-19T10:27:12;23.00;99.90
54986;DHT22;40885;53.070;6.228;2022-08-19T10:29:40;23.10;99.90
54986;DHT22;40885;53.070;6.228;2022-08-19T10:32:07;23.20;99.90
54986;DHT22;40885;53.070;6.228;2022-08-19T10:34:36;23.30;99.90
54986;DHT22;40885;53.070;6.228;2022-08-19T10:37:05;23.30;99.90
54986;DHT22;40885;53.070;6.228;2022-08-19T10:39:33;23.40;99.90
54986;DHT22;40885;53.070;6.228;2022-08-19T10:42:05;23.40;99.90
54986;DHT22;40885;53.070;6.228;2022-08-19T10:44:32;23.50;99.90
54986;DHT22;40885;53.070;6.228;2022-08-19T10:47:01;23.60;99.90
54986;DHT22;40885;53.070;6.228;2022-08-19T10:49:27;23.70;99.90
54986;DHT22;40885;53.070;6.228;2022-08-19T10:51:54;23.70;99.90
54986;DHT22;40885;53.070;6.228;2022-08-19T10:54:38;23.80;99.90
54986;DHT22;40885;53.070;6.228;2022-08-19T10:57:22;23.90;99.90
54986;DHT22;40885;53.070;6.228;2022-08-19T10:59:55;24.10;99.90
54986;DHT22;40885;53.070;6.228;2022-08-19T11:02:21;24.20;99.90
54986;DHT22;40885;53.070;6.228;2022-08-19T11:04:47;24.30;99.90
54986;DHT22;40885;53.070;6.228;2022-08-19T11:07:16;24.30;99.90
54986;DHT22;40885;53.070;6.228;2022-08-19T11:09:42;24.40;99.90
54986;DHT22;40885;53.070;6.228;2022-08-19T11:12:09;24.40;99.90
54986;DHT22;40885;53.070;6.228;2022-08-19T11:14:35;24.40;99.90
54986;DHT22;40885;53.070;6.228;2022-08-19T11:17:05;24.40;99.90
54986;DHT22;40885;53.070;6.228;2022-08-19T11:19:32;24.30;99.90
54986;DHT22;40885;53.070;6.228;2022-08-19T11:21:58;24.20;99.90
54986;DHT22;40885;53.070;6.228;2022-08-19T11:24:27;24.10;99.90
54986;DHT22;40885;53.070;6.228;2022-08-19T11:26:55;24.00;99.90
54986;DHT22;40885;53.070;6.228;2022-08-19T11:29:26;24.00;99.90
54986;DHT22;40885;53.070;6.228;2022-08-19T11:31:53;24.00;99.90
54986;DHT22;40885;53.070;6.228;2022-08-19T11:34:25;24.10;99.90
54986;DHT22;40885;53.070;6.228;2022-08-19T11:36:53;24.10;99.90
54986;DHT22;40885;53.070;6.228;2022-08-19T11:39:24;24.00;99.90
54986;DHT22;40885;53.070;6.228;2022-08-19T11:41:50;23.90;99.90
54986;DHT22;40885;53.070;6.228;2022-08-19T11:44:17;23.90;99.90
54986;DHT22;40885;53.070;6.228;2022-08-19T11:46:44;23.90;99.90
54986;DHT22;40885;53.070;6.228;2022-08-19T11:49:13;23.90;99.90
54986;DHT22;40885;53.070;6.228;2022-08-19T11:51:39;23.80;99.90
54986;DHT22;40885;53.070;6.228;2022-08-19T11:54:07;23.80;99.90
54986;DHT22;40885;53.070;6.228;2022-08-19T11:56:33;23.80;99.90
54986;DHT22;40885;53.070;6.228;2022-08-19T11:59:00;23.70;99.90
54986;DHT22;40885;53.070;6.228;2022-08-19T12:01:27;23.80;99.90
54986;DHT22;40885;53.070;6.228;2022-08-19T12:03:54;23.70;99.90
54986;DHT22;40885;53.070;6.228;2022-08-19T12:06:25;23.70;99.90
54986;DHT22;40885;53.070;6.228;2022-08-19T12:09:03;23.60;99.90
54986;DHT22;40885;53.070;6.228;2022-08-19T12:11:29;23.60;99.90
54986;DHT22;40885;53.070;6.228;2022-08-19T12:13:54;23.50;99.90
54986;DHT22;40885;53.070;6.228;2022-08-19T12:16:24;23.50;99.90
54986;DHT22;40885;53.070;6.228;2022-08-19T12:18:51;23.40;99.90
54986;DHT22;40885;53.070;6.228;2022-08-19T12:21:20;23.30;99.90
54986;DHT22;40885;53.070;6.228;2022-08-19T12:23:49;23.20;99.90
54986;DHT22;40885;53.070;6.228;2022-08-19T12:26:17;23.10;99.90
54986;DHT22;40885;53.070;6.228;2022-08-19T12:28:43;23.10;99.90
54986;DHT22;40885;53.070;6.228;2022-08-19T12:31:09;22.90;99.90
54986;DHT22;40885;53.070;6.228;2022-08-19T12:33:38;22.80;99.90
54986;DHT22;40885;53.070;6.228;2022-08-19T12:36:05;22.80;99.90
54986;DHT22;40885;53.070;6.228;2022-08-19T12:38:32;22.90;99.90
54986;DHT22;40885;53.070;6.228;2022-08-19T12:41:00;22.80;99.90
54986;DHT22;40885;53.070;6.228;2022-08-19T12:43:26;22.80;99.90
54986;DHT22;40885;53.070;6.228;2022-08-19T12:45:52;22.80;99.90
54986;DHT22;40885;53.070;6.228;2022-08-19T12:48:18;22.70;99.90
54986;DHT22;40885;53.070;6.228;2022-08-19T12:50:45;22.80;99.90
54986;DHT22;40885;53.070;6.228;2022-08-19T12:53:13;22.80;99.90
54986;DHT22;40885;53.070;6.228;2022-08-19T12:55:39;22.80;99.90
54986;DHT22;40885;53.070;6.228;2022-08-19T12:58:05;22.70;99.90
54986;DHT22;40885;53.070;6.228;2022-08-19T13:00:33;22.50;99.90
54986;DHT22;40885;53.070;6.228;2022-08-19T13:02:59;22.40;99.90
54986;DHT22;40885;53.070;6.228;2022-08-19T13:05:30;22.30;99.90
54986;DHT22;40885;53.070;6.228;2022-08-19T13:07:57;22.10;99.90
54986;DHT22;40885;53.070;6.228;2022-08-19T13:10:28;22.10;99.90
54986;DHT22;40885;53.070;6.228;2022-08-19T13:12:55;22.10;99.90
54986;DHT22;40885;53.070;6.228;2022-08-19T13:15:23;22.00;99.90
54986;DHT22;40885;53.070;6.228;2022-08-19T13:17:50;21.90;99.90
54986;DHT22;40885;53.070;6.228;2022-08-19T13:20:19;21.80;99.90
54986;DHT22;40885;53.070;6.228;2022-08-19T13:22:47;21.70;99.90
54986;DHT22;40885;53.070;6.228;2022-08-19T13:25:15;21.70;99.90
54986;DHT22;40885;53.070;6.228;2022-08-19T13:27:43;21.60;99.90
54986;DHT22;40885;53.070;6.228;2022-08-19T13:30:11;21.60;99.90
54986;DHT22;40885;53.070;6.228;2022-08-19T13:32:56;21.60;99.90
54986;DHT22;40885;53.070;6.228;2022-08-19T13:35:38;21.50;99.90
54986;DHT22;40885;53.070;6.228;2022-08-19T13:38:04;21.50;99.90
54986;DHT22;40885;53.070;6.228;2022-08-19T13:40:32;21.60;99.90
54986;DHT22;40885;53.070;6.228;2022-08-19T13:43:02;21.60;99.90
54986;DHT22;40885;53.070;6.228;2022-08-19T13:45:29;21.60;99.90
54986;DHT22;40885;53.070;6.228;2022-08-19T13:47:59;21.60;99.90
54986;DHT22;40885;53.070;6.228;2022-08-19T13:50:29;21.70;99.90
54986;DHT22;40885;53.070;6.228;2022-08-19T13:52:57;21.80;99.90
54986;DHT22;40885;53.070;6.228;2022-08-19T13:55:24;21.80;99.90
54986;DHT22;40885;53.070;6.228;2022-08-19T13:57:54;21.80;99.90
54986;DHT22;40885;53.070;6.228;2022-08-19T14:00:21;21.80;99.90
54986;DHT22;40885;53.070;6.228;2022-08-19T14:02:49;21.80;99.90
54986;DHT22;40885;53.070;6.228;2022-08-19T14:05:17;21.80;99.90
54986;DHT22;40885;53.070;6.228;2022-08-19T14:07:43;21.80;99.90
54986;DHT22;40885;53.070;6.228;2022-08-19T14:10:11;21.80;99.90
54986;DHT22;40885;53.070;6.228;2022-08-19T14:12:38;21.80;99.90
54986;DHT22;40885;53.070;6.228;2022-08-19T14:15:06;21.80;99.90
54986;DHT22;40885;53.070;6.228;2022-08-19T14:17:32;21.80;99.90
54986;DHT22;40885;53.070;6.228;2022-08-19T14:20:02;21.80;99.90
54986;DHT22;40885;53.070;6.228;2022-08-19T14:22:30;21.80;99.90
54986;DHT22;40885;53.070;6.228;2022-08-19T14:25:00;21.80;99.90
54986;DHT22;40885;53.070;6.228;2022-08-19T14:27:40;21.90;99.90
54986;DHT22;40885;53.070;6.228;2022-08-19T14:30:13;21.90;99.90
54986;DHT22;40885;53.070;6.228;2022-08-19T14:32:41;22.00;99.90
54986;DHT22;40885;53.070;6.228;2022-08-19T14:35:09;22.00;99.90
54986;DHT22;40885;53.070;6.228;2022-08-19T14:37:35;22.10;99.90
54986;DHT22;40885;53.070;6.228;2022-08-19T14:40:02;22.10;99.90
54986;DHT22;40885;53.070;6.228;2022-08-19T14:42:29;22.20;99.90
54986;DHT22;40885;53.070;6.228;2022-08-19T14:44:58;22.10;99.90
54986;DHT22;40885;53.070;6.228;2022-08-19T14:47:24;22.10;99.90
54986;DHT22;40885;53.070;6.228;2022-08-19T14:49:49;22.10;99.90
54986;DHT22;40885;53.070;6.228;2022-08-19T14:52:15;22.10;99.90
54986;DHT22;40885;53.070;6.228;2022-08-19T14:54:41;22.10;99.90
54986;DHT22;40885;53.070;6.228;2022-08-19T14:57:12;22.20;99.90
54986;DHT22;40885;53.070;6.228;2022-08-19T14:59:38;22.20;99.90
54986;DHT22;40885;53.070;6.228;2022-08-19T15:02:04;22.30;99.90
54986;DHT22;40885;53.070;6.228;2022-08-19T15:04:29;22.30;99.90
54986;DHT22;40885;53.070;6.228;2022-08-19T15:06:55;22.30;99.90
54986;DHT22;40885;53.070;6.228;2022-08-19T15:09:21;22.30;99.90
54986;DHT22;40885;53.070;6.228;2022-08-19T15:11:47;22.30;99.90
54986;DHT22;40885;53.070;6.228;2022-08-19T15:14:14;22.30;99.90
54986;DHT22;40885;53.070;6.228;2022-08-19T15:16:40;22.30;99.90
54986;DHT22;40885;53.070;6.228;2022-08-19T15:19:07;22.30;99.90
54986;DHT22;40885;53.070;6.228;2022-08-19T15:21:32;22.30;99.90
54986;DHT22;40885;53.070;6.228;2022-08-19T15:23:59;22.30;99.90
54986;DHT22;40885;53.070;6.228;2022-08-19T15:26:25;22.20;99.90
54986;DHT22;40885;53.070;6.228;2022-08-19T15:28:53;22.20;99.90
54986;DHT22;40885;53.070;6.228;2022-08-19T15:31:21;22.20;99.90
54986;DHT22;40885;53.070;6.228;2022-08-19T15:33:48;22.20;99.90
54986;DHT22;40885;53.070;6.228;2022-08-19T15:36:14;22.20;99.90
54986;DHT22;40885;53.070;6.228;2022-08-19T15:38:40;22.30;99.90
54986;DHT22;40885;53.070;6.228;2022-08-19T15:41:19;22.30;99.90
54986;DHT22;40885;53.070;6.228;2022-08-19T15:43:59;22.40;99.90
54986;DHT22;40885;53.070;6.228;2022-08-19T15:46:27;22.50;99.90
54986;DHT22;40885;53.070;6.228;2022-08-19T15:48:55;22.60;99.90
54986;DHT22;40885;53.070;6.228;2022-08-19T15:51:21;22.70;99.90
54986;DHT22;40885;53.070;6.228;2022-08-19T15:53:47;22.70;99.90
54986;DHT22;40885;53.070;6.228;2022-08-19T15:56:13;22.70;99.90
54986;DHT22;40885;53.070;6.228;2022-08-19T15:58:40;22.70;99.90
54986;DHT22;40885;53.070;6.228;2022-08-19T16:01:24;22.80;99.90
54986;DHT22;40885;53.070;6.228;2022-08-19T16:03:57;22.80;99.90
54986;DHT22;40885;53.070;6.228;2022-08-19T16:06:53;22.80;99.90
54986;DHT22;40885;53.070;6.228;2022-08-19T16:09:26;22.80;99.90
54986;DHT22;40885;53.070;6.228;2022-08-19T16:11:58;22.80;99.90
54986;DHT22;40885;53.070;6.228;2022-08-19T16:14:26;22.70;99.90
54986;DHT22;40885;53.070;6.228;2022-08-19T16:16:51;22.70;99.90
54986;DHT22;40885;53.070;6.228;2022-08-19T16:19:18;22.70;99.90
54986;DHT22;40885;53.070;6.228;2022-08-19T16:21:47;22.70;99.90
54986;DHT22;40885;53.070;6.228;2022-08-19T16:24:16;22.70;99.90
54986;DHT22;40885;53.070;6.228;2022-08-19T16:26:43;22.70;99.90
54986;DHT22;40885;53.070;6.228;2022-08-19T16:29:09;22.70;99.90
54986;DHT22;40885;53.070;6.228;2022-08-19T16:31:36;22.70;99.90
54986;DHT22;40885;53.070;6.228;2022-08-19T16:34:03;22.80;99.90
54986;DHT22;40885;53.070;6.228;2022-08-19T16:36:28;22.80;99.90
54986;DHT22;40885;53.070;6.228;2022-08-19T16:38:55;22.90;99.90
54986;DHT22;40885;53.070;6.228;2022-08-19T16:41:22;22.90;99.90
54986;DHT22;40885;53.070;6.228;2022-08-19T16:43:48;22.90;99.90
54986;DHT22;40885;53.070;6.228;2022-08-19T16:46:18;22.90;99.90
54986;DHT22;40885;53.070;6.228;2022-08-19T16:48:43;22.90;99.90
54986;DHT22;40885;53.070;6.228;2022-08-19T16:51:11;22.80;99.90
54986;DHT22;40885;53.070;6.228;2022-08-19T16:53:38;22.80;99.90
54986;DHT22;40885;53.070;6.228;2022-08-19T16:56:05;22.80;99.90
54986;DHT22;40885;53.070;6.228;2022-08-19T16:58:31;22.70;99.90
54986;DHT22;40885;53.070;6.228;2022-08-19T17:01:00;22.70;99.90
54986;DHT22;40885;53.070;6.228;2022-08-19T17:03:27;22.70;99.90
54986;DHT22;40885;53.070;6.228;2022-08-19T17:05:54;22.60;99.90
54986;DHT22;40885;53.070;6.228;2022-08-19T17:08:22;22.70;99.90
54986;DHT22;40885;53.070;6.228;2022-08-19T17:10:52;22.80;99.90
54986;DHT22;40885;53.070;6.228;2022-08-19T17:13:23;22.90;99.90
54986;DHT22;40885;53.070;6.228;2022-08-19T17:15:49;22.90;99.90
54986;DHT22;40885;53.070;6.228;2022-08-19T17:18:16;22.90;99.90
54986;DHT22;40885;53.070;6.228;2022-08-19T17:20:43;22.80;99.90
54986;DHT22;40885;53.070;6.228;2022-08-19T17:23:11;22.80;99.90
54986;DHT22;40885;53.070;6.228;2022-08-19T17:25:37;22.80;99.90
54986;DHT22;40885;53.070;6.228;2022-08-19T17:28:09;22.60;99.90
54986;DHT22;40885;53.070;6.228;2022-08-19T17:30:35;22.60;99.90
54986;DHT22;40885;53.070;6.228;2022-08-19T17:33:03;22.60;99.90
54986;DHT22;40885;53.070;6.228;2022-08-19T17:35:29;22.50;99.90
54986;DHT22;40885;53.070;6.228;2022-08-19T17:37:55;22.40;99.90
54986;DHT22;40885;53.070;6.228;2022-08-19T17:40:21;22.40;99.90
54986;DHT22;40885;53.070;6.228;2022-08-19T17:42:47;22.30;99.90
54986;DHT22;40885;53.070;6.228;2022-08-19T17:45:13;22.30;99.90
54986;DHT22;40885;53.070;6.228;2022-08-19T17:47:39;22.30;99.90
54986;DHT22;40885;53.070;6.228;2022-08-19T17:50:09;22.20;99.90
54986;DHT22;40885;53.070;6.228;2022-08-19T17:52:38;22.10;99.90
54986;DHT22;40885;53.070;6.228;2022-08-19T17:55:05;22.00;99.90
54986;DHT22;40885;53.070;6.228;2022-08-19T17:57:31;22.00;99.90
54986;DHT22;40885;53.070;6.228;2022-08-19T17:59:57;21.90;99.90
54986;DHT22;40885;53.070;6.228;2022-08-19T18:02:23;21.90;99.90
54986;DHT22;40885;53.070;6.228;2022-08-19T18:04:49;21.90;99.90
54986;DHT22;40885;53.070;6.228;2022-08-19T18:07:15;21.90;99.90
54986;DHT22;40885;53.070;6.228;2022-08-19T18:09:46;21.80;99.90
54986;DHT22;40885;53.070;6.228;2022-08-19T18:12:23;21.70;99.90
54986;DHT22;40885;53.070;6.228;2022-08-19T18:14:51;21.60;99.90
54986;DHT22;40885;53.070;6.228;2022-08-19T18:17:17;21.60;99.90
54986;DHT22;40885;53.070;6.228;2022-08-19T18:19:45;21.50;99.90
54986;DHT22;40885;53.070;6.228;2022-08-19T18:22:33;21.50;99.90
54986;DHT22;40885;53.070;6.228;2022-08-19T18:25:03;21.40;99.90
54986;DHT22;40885;53.070;6.228;2022-08-19T18:27:29;21.30;99.90
54986;DHT22;40885;53.070;6.228;2022-08-19T18:29:54;21.20;99.90
54986;DHT22;40885;53.070;6.228;2022-08-19T18:32:25;21.20;99.90
54986;DHT22;40885;53.070;6.228;2022-08-19T18:34:52;21.10;99.90
54986;DHT22;40885;53.070;6.228;2022-08-19T18:37:18;21.10;99.90
54986;DHT22;40885;53.070;6.228;2022-08-19T18:39:44;21.10;99.90
54986;DHT22;40885;53.070;6.228;2022-08-19T18:42:29;21.00;99.90
54986;DHT22;40885;53.070;6.228;2022-08-19T18:45:13;21.00;99.90
54986;DHT22;40885;53.070;6.228;2022-08-19T18:47:57;21.00;99.90
54986;DHT22;40885;53.070;6.228;2022-08-19T18:50:41;20.90;99.90
54986;DHT22;40885;53.070;6.228;2022-08-19T18:53:08;20.90;99.90
54986;DHT22;40885;53.070;6.228;2022-08-19T18:55:34;20.80;99.90
54986;DHT22;40885;53.070;6.228;2022-08-19T18:58:00;20.80;99.90
54986;DHT22;40885;53.070;6.228;2022-08-19T19:00:27;20.70;99.90
54986;DHT22;40885;53.070;6.228;2022-08-19T19:02:53;20.70;99.90
54986;DHT22;40885;53.070;6.228;2022-08-19T19:05:19;20.70;99.90
54986;DHT22;40885;53.070;6.228;2022-08-19T19:07:47;20.60;99.90
54986;DHT22;40885;53.070;6.228;2022-08-19T19:10:13;20.60;99.90
54986;DHT22;40885;53.070;6.228;2022-08-19T19:12:42;20.60;99.90
54986;DHT22;40885;53.070;6.228;2022-08-19T19:15:11;20.50;99.90
54986;DHT22;40885;53.070;6.228;2022-08-19T19:17:37;20.50;99.90
54986;DHT22;40885;53.070;6.228;2022-08-19T19:20:07;20.40;99.90
54986;DHT22;40885;53.070;6.228;2022-08-19T19:22:33;20.40;99.90
54986;DHT22;40885;53.070;6.228;2022-08-19T19:24:59;20.40;99.90
54986;DHT22;40885;53.070;6.228;2022-08-19T19:27:24;20.30;99.90
54986;DHT22;40885;53.070;6.228;2022-08-19T19:29:50;20.30;99.90
54986;DHT22;40885;53.070;6.228;2022-08-19T19:32:26;20.20;99.90
54986;DHT22;40885;53.070;6.228;2022-08-19T19:34:54;20.20;99.90
54986;DHT22;40885;53.070;6.228;2022-08-19T19:37:19;20.20;99.90
54986;DHT22;40885;53.070;6.228;2022-08-19T19:39:47;20.20;99.90
54986;DHT22;40885;53.070;6.228;2022-08-19T19:42:16;20.20;99.90
54986;DHT22;40885;53.070;6.228;2022-08-19T19:44:43;20.20;99.90
54986;DHT22;40885;53.070;6.228;2022-08-19T19:47:13;20.10;99.90
54986;DHT22;40885;53.070;6.228;2022-08-19T19:49:40;20.10;99.90
54986;DHT22;40885;53.070;6.228;2022-08-19T19:52:06;20.10;99.90
54986;DHT22;40885;53.070;6.228;2022-08-19T19:54:32;20.10;99.90
54986;DHT22;40885;53.070;6.228;2022-08-19T19:57:00;20.10;99.90
54986;DHT22;40885;53.070;6.228;2022-08-19T19:59:25;20.10;99.90
54986;DHT22;40885;53.070;6.228;2022-08-19T20:01:51;20.10;99.90
54986;DHT22;40885;53.070;6.228;2022-08-19T20:04:17;20.10;99.90
54986;DHT22;40885;53.070;6.228;2022-08-19T20:06:44;20.10;99.90
54986;DHT22;40885;53.070;6.228;2022-08-19T20:09:11;20.10;99.90
54986;DHT22;40885;53.070;6.228;2022-08-19T20:11:53;20.10;99.90
54986;DHT22;40885;53.070;6.228;2022-08-19T20:14:22;20.10;99.90
54986;DHT22;40885;53.070;6.228;2022-08-19T20:16:49;20.10;99.90
54986;DHT22;40885;53.070;6.228;2022-08-19T20:19:18;20.10;99.90
54986;DHT22;40885;53.070;6.228;2022-08-19T20:21:46;20.10;99.90
54986;DHT22;40885;53.070;6.228;2022-08-19T20:24:26;20.10;99.90
54986;DHT22;40885;53.070;6.228;2022-08-19T20:26:52;20.10;99.90
54986;DHT22;40885;53.070;6.228;2022-08-19T20:29:19;20.10;99.90
54986;DHT22;40885;53.070;6.228;2022-08-19T20:31:46;20.10;99.90
54986;DHT22;40885;53.070;6.228;2022-08-19T20:34:13;20.10;99.90
54986;DHT22;40885;53.070;6.228;2022-08-19T20:36:40;20.10;99.90
54986;DHT22;40885;53.070;6.228;2022-08-19T20:39:06;20.10;99.90
54986;DHT22;40885;53.070;6.228;2022-08-19T20:41:33;20.10;99.90
54986;DHT22;40885;53.070;6.228;2022-08-19T20:43:59;20.10;99.90
54986;DHT22;40885;53.070;6.228;2022-08-19T20:46:28;20.10;99.90
54986;DHT22;40885;53.070;6.228;2022-08-19T20:48:55;20.10;99.90
54986;DHT22;40885;53.070;6.228;2022-08-19T20:51:21;20.00;99.90
54986;DHT22;40885;53.070;6.228;2022-08-19T20:53:47;20.10;99.90
54986;DHT22;40885;53.070;6.228;2022-08-19T20:56:12;20.10;99.90
54986;DHT22;40885;53.070;6.228;2022-08-19T20:58:38;20.10;99.90
54986;DHT22;40885;53.070;6.228;2022-08-19T21:01:05;20.10;99.90
54986;DHT22;40885;53.070;6.228;2022-08-19T21:03:34;20.10;99.90
54986;DHT22;40885;53.070;6.228;2022-08-19T21:06:01;20.00;99.90
54986;DHT22;40885;53.070;6.228;2022-08-19T21:08:27;20.00;99.90
54986;DHT22;40885;53.070;6.228;2022-08-19T21:10:55;20.00;99.90
54986;DHT22;40885;53.070;6.228;2022-08-19T21:13:22;20.00;99.90
54986;DHT22;40885;53.070;6.228;2022-08-19T21:15:49;20.00;99.90
54986;DHT22;40885;53.070;6.228;2022-08-19T21:18:16;20.00;99.90
54986;DHT22;40885;53.070;6.228;2022-08-19T21:20:44;20.00;99.90
54986;DHT22;40885;53.070;6.228;2022-08-19T21:23:13;20.00;99.90
54986;DHT22;40885;53.070;6.228;2022-08-19T21:25:39;20.00;99.90
54986;DHT22;40885;53.070;6.228;2022-08-19T21:28:05;19.90;99.90
54986;DHT22;40885;53.070;6.228;2022-08-19T21:30:32;19.90;99.90
54986;DHT22;40885;53.070;6.228;2022-08-19T21:32:59;19.90;99.90
54986;DHT22;40885;53.070;6.228;2022-08-19T21:35:25;19.80;99.90
54986;DHT22;40885;53.070;6.228;2022-08-19T21:37:51;19.80;99.90
54986;DHT22;40885;53.070;6.228;2022-08-19T21:40:17;19.80;99.90
54986;DHT22;40885;53.070;6.228;2022-08-19T21:42:44;19.80;99.90
54986;DHT22;40885;53.070;6.228;2022-08-19T21:45:12;19.70;99.90
54986;DHT22;40885;53.070;6.228;2022-08-19T21:47:38;19.70;99.90
54986;DHT22;40885;53.070;6.228;2022-08-19T21:50:05;19.70;99.90
54986;DHT22;40885;53.070;6.228;2022-08-19T21:52:31;19.60;99.90
54986;DHT22;40885;53.070;6.228;2022-08-19T21:54:56;19.60;99.90
54986;DHT22;40885;53.070;6.228;2022-08-19T21:57:23;19.60;99.90
54986;DHT22;40885;53.070;6.228;2022-08-19T21:59:52;19.50;99.90
54986;DHT22;40885;53.070;6.228;2022-08-19T22:02:19;19.50;99.90
54986;DHT22;40885;53.070;6.228;2022-08-19T22:04:45;19.50;99.90
54986;DHT22;40885;53.070;6.228;2022-08-19T22:07:12;19.40;99.90
54986;DHT22;40885;53.070;6.228;2022-08-19T22:09:43;19.40;99.90
54986;DHT22;40885;53.070;6.228;2022-08-19T22:12:20;19.40;99.90
54986;DHT22;40885;53.070;6.228;2022-08-19T22:14:48;19.30;99.90
54986;DHT22;40885;53.070;6.228;2022-08-19T22:17:15;19.20;99.90
54986;DHT22;40885;53.070;6.228;2022-08-19T22:19:41;19.20;99.90
54986;DHT22;40885;53.070;6.228;2022-08-19T22:22:07;19.20;99.90
54986;DHT22;40885;53.070;6.228;2022-08-19T22:24:32;19.10;99.90
54986;DHT22;40885;53.070;6.228;2022-08-19T22:26:58;19.10;99.90
54986;DHT22;40885;53.070;6.228;2022-08-19T22:29:26;19.00;99.90
54986;DHT22;40885;53.070;6.228;2022-08-19T22:31:52;19.00;99.90
54986;DHT22;40885;53.070;6.228;2022-08-19T22:34:17;19.00;99.90
54986;DHT22;40885;53.070;6.228;2022-08-19T22:36:43;18.90;99.90
54986;DHT22;40885;53.070;6.228;2022-08-19T22:39:09;18.90;99.90
54986;DHT22;40885;53.070;6.228;2022-08-19T22:41:35;18.90;99.90
54986;DHT22;40885;53.070;6.228;2022-08-19T22:44:02;18.90;99.90
54986;DHT22;40885;53.070;6.228;2022-08-19T22:46:28;18.80;99.90
54986;DHT22;40885;53.070;6.228;2022-08-19T22:48:58;18.80;99.90
54986;DHT22;40885;53.070;6.228;2022-08-19T22:51:24;18.80;99.90
54986;DHT22;40885;53.070;6.228;2022-08-19T22:54:09;18.80;99.90
54986;DHT22;40885;53.070;6.228;2022-08-19T22:56:34;18.80;99.90
54986;DHT22;40885;53.070;6.228;2022-08-19T22:59:00;18.80;99.90
54986;DHT22;40885;53.070;6.228;2022-08-19T23:01:28;18.80;99.90
54986;DHT22;40885;53.070;6.228;2022-08-19T23:03:54;18.70;99.90
54986;DHT22;40885;53.070;6.228;2022-08-19T23:06:21;18.70;99.90
54986;DHT22;40885;53.070;6.228;2022-08-19T23:08:47;18.70;99.90
54986;DHT22;40885;53.070;6.228;2022-08-19T23:11:13;18.70;99.90
54986;DHT22;40885;53.070;6.228;2022-08-19T23:13:40;18.70;99.90
54986;DHT22;40885;53.070;6.228;2022-08-19T23:16:07;18.70;99.90
54986;DHT22;40885;53.070;6.228;2022-08-19T23:18:33;18.70;99.90
54986;DHT22;40885;53.070;6.228;2022-08-19T23:21:00;18.70;99.90
54986;DHT22;40885;53.070;6.228;2022-08-19T23:23:26;18.60;99.90
54986;DHT22;40885;53.070;6.228;2022-08-19T23:25:53;18.60;99.90
54986;DHT22;40885;53.070;6.228;2022-08-19T23:28:20;18.60;99.90
54986;DHT22;40885;53.070;6.228;2022-08-19T23:31:13;18.50;99.90
54986;DHT22;40885;53.070;6.228;2022-08-19T23:33:41;18.40;99.90
54986;DHT22;40885;53.070;6.228;2022-08-19T23:36:10;18.40;99.90
54986;DHT22;40885;53.070;6.228;2022-08-19T23:38:40;18.40;99.90
54986;DHT22;40885;53.070;6.228;2022-08-19T23:41:08;18.30;99.90
54986;DHT22;40885;53.070;6.228;2022-08-19T23:43:35;18.20;99.90
54986;DHT22;40885;53.070;6.228;2022-08-19T23:46:03;18.20;99.90
54986;DHT22;40885;53.070;6.228;2022-08-19T23:48:31;18.20;99.90
54986;DHT22;40885;53.070;6.228;2022-08-19T23:50:58;18.20;99.90
54986;DHT22;40885;53.070;6.228;2022-08-19T23:53:25;18.20;99.90
54986;DHT22;40885;53.070;6.228;2022-08-19T23:55:52;18.20;99.90
54986;DHT22;40885;53.070;6.228;2022-08-19T23:58:18;18.20;99.90
